sensor_id;sensor_type;location;lat;lon;timestamp;P1;durP1;ratioP1;P2;durP2;ratioP2
18685;SDS011;9473;52.342;13.110;2023-02-01T00:00:11;16.67;;;2.15;;
18685;SDS011;9473;52.342;13.110;2023-02-01T00:02:39;12.73;;;1.63;;
18685;SDS011;9473;52.342;13.110;2023-02-01T00:05:06;12.15;;;1.98;;
18685;SDS011;9473;52.342;13.110;2023-02-01T00:07:35;14.43;;;2.45;;
18685;SDS011;9473;52.342;13.110;2023-02-01T00:10:02;15.65;;;2.42;;
18685;SDS011;9473;52.342;13.110;2023-02-01T00:12:29;11.95;;;1.85;;
18685;SDS011;9473;52.342;13.110;2023-02-01T00:14:56;10.63;;;1.77;;
18685;SDS011;9473;52.342;13.110;2023-02-01T00:17:23;11.50;;;2.00;;
18685;SDS011;9473;52.342;13.110;2023-02-01T00:19:50;11.15;;;1.85;;
18685;SDS011;9473;52.342;13.110;2023-02-01T00:22:17;11.70;;;2.25;;
18685;SDS011;9473;52.342;13.110;2023-02-01T00:24:45;13.48;;;2.50;;
18685;SDS011;9473;52.342;13.110;2023-02-01T00:27:12;14.23;;;2.35;;
18685;SDS011;9473;52.342;13.110;2023-02-01T00:29:42;14.07;;;2.45;;
18685;SDS011;9473;52.342;13.110;2023-02-01T00:32:09;11.75;;;2.15;;
18685;SDS011;9473;52.342;13.110;2023-02-01T00:34:36;12.93;;;2.22;;
18685;SDS011;9473;52.342;13.110;2023-02-01T00:37:04;11.07;;;1.70;;
18685;SDS011;9473;52.342;13.110;2023-02-01T00:39:30;15.07;;;2.15;;
18685;SDS011;9473;52.342;13.110;2023-02-01T00:41:59;18.55;;;2.25;;
18685;SDS011;9473;52.342;13.110;2023-02-01T00:44:26;13.18;;;1.75;;
18685;SDS011;9473;52.342;13.110;2023-02-01T00:46:53;15.63;;;2.13;;
18685;SDS011;9473;52.342;13.110;2023-02-01T00:49:20;14.27;;;2.03;;
18685;SDS011;9473;52.342;13.110;2023-02-01T00:51:47;14.10;;;2.17;;
18685;SDS011;9473;52.342;13.110;2023-02-01T00:54:14;9.85;;;1.92;;
18685;SDS011;9473;52.342;13.110;2023-02-01T00:56:41;11.45;;;1.67;;
18685;SDS011;9473;52.342;13.110;2023-02-01T00:59:11;13.30;;;1.65;;
18685;SDS011;9473;52.342;13.110;2023-02-01T01:01:38;11.02;;;2.13;;
18685;SDS011;9473;52.342;13.110;2023-02-01T01:04:05;10.88;;;1.98;;
18685;SDS011;9473;52.342;13.110;2023-02-01T01:06:32;12.93;;;1.83;;
18685;SDS011;9473;52.342;13.110;2023-02-01T01:09:00;9.80;;;1.52;;
18685;SDS011;9473;52.342;13.110;2023-02-01T01:11:28;10.35;;;1.90;;
18685;SDS011;9473;52.342;13.110;2023-02-01T01:13:56;13.07;;;1.63;;
18685;SDS011;9473;52.342;13.110;2023-02-01T01:16:26;13.07;;;1.70;;
18685;SDS011;9473;52.342;13.110;2023-02-01T01:18:53;7.13;;;1.48;;
18685;SDS011;9473;52.342;13.110;2023-02-01T01:21:20;13.95;;;2.47;;
18685;SDS011;9473;52.342;13.110;2023-02-01T01:23:47;12.27;;;2.40;;
18685;SDS011;9473;52.342;13.110;2023-02-01T01:26:15;14.95;;;1.98;;
18685;SDS011;9473;52.342;13.110;2023-02-01T01:28:42;14.73;;;2.05;;
18685;SDS011;9473;52.342;13.110;2023-02-01T01:31:09;13.88;;;1.75;;
18685;SDS011;9473;52.342;13.110;2023-02-01T01:33:38;12.05;;;2.33;;
18685;SDS011;9473;52.342;13.110;2023-02-01T01:36:05;12.27;;;1.90;;
18685;SDS011;9473;52.342;13.110;2023-02-01T01:38:32;10.60;;;1.85;;
18685;SDS011;9473;52.342;13.110;2023-02-01T01:40:59;9.98;;;1.90;;
18685;SDS011;9473;52.342;13.110;2023-02-01T01:46:08;7.88;;;1.60;;
18685;SDS011;9473;52.342;13.110;2023-02-01T01:48:35;9.70;;;1.73;;
18685;SDS011;9473;52.342;13.110;2023-02-01T01:51:04;10.65;;;2.20;;
18685;SDS011;9473;52.342;13.110;2023-02-01T01:53:33;14.73;;;2.22;;
18685;SDS011;9473;52.342;13.110;2023-02-01T01:56:03;10.98;;;1.77;;
18685;SDS011;9473;52.342;13.110;2023-02-01T01:58:30;11.52;;;1.60;;
18685;SDS011;9473;52.342;13.110;2023-02-01T02:00:59;11.10;;;1.70;;
18685;SDS011;9473;52.342;13.110;2023-02-01T02:03:27;11.93;;;2.03;;
18685;SDS011;9473;52.342;13.110;2023-02-01T02:05:58;18.77;;;2.40;;
18685;SDS011;9473;52.342;13.110;2023-02-01T02:08:28;13.30;;;1.83;;
18685;SDS011;9473;52.342;13.110;2023-02-01T02:10:55;13.70;;;2.00;;
18685;SDS011;9473;52.342;13.110;2023-02-01T02:13:25;15.55;;;1.98;;
18685;SDS011;9473;52.342;13.110;2023-02-01T02:15:57;13.77;;;2.17;;
18685;SDS011;9473;52.342;13.110;2023-02-01T02:18:27;10.95;;;1.63;;
18685;SDS011;9473;52.342;13.110;2023-02-01T02:21:13;11.30;;;1.95;;
18685;SDS011;9473;52.342;13.110;2023-02-01T02:26:26;6.50;;;1.50;;
18685;SDS011;9473;52.342;13.110;2023-02-01T02:29:12;13.25;;;1.63;;
18685;SDS011;9473;52.342;13.110;2023-02-01T02:34:31;8.10;;;1.48;;
18685;SDS011;9473;52.342;13.110;2023-02-01T02:37:04;8.77;;;1.70;;
18685;SDS011;9473;52.342;13.110;2023-02-01T02:39:36;17.17;;;2.05;;
18685;SDS011;9473;52.342;13.110;2023-02-01T02:42:07;13.00;;;2.08;;
18685;SDS011;9473;52.342;13.110;2023-02-01T02:44:56;13.57;;;2.03;;
18685;SDS011;9473;52.342;13.110;2023-02-01T02:47:42;8.65;;;1.88;;
18685;SDS011;9473;52.342;13.110;2023-02-01T02:50:15;14.20;;;1.67;;
18685;SDS011;9473;52.342;13.110;2023-02-01T02:53:02;12.93;;;2.35;;
18685;SDS011;9473;52.342;13.110;2023-02-01T02:55:48;11.90;;;1.65;;
18685;SDS011;9473;52.342;13.110;2023-02-01T02:58:17;12.52;;;2.17;;
18685;SDS011;9473;52.342;13.110;2023-02-01T03:01:02;12.02;;;1.83;;
18685;SDS011;9473;52.342;13.110;2023-02-01T03:03:48;11.15;;;1.98;;
18685;SDS011;9473;52.342;13.110;2023-02-01T03:06:34;13.35;;;2.25;;
18685;SDS011;9473;52.342;13.110;2023-02-01T03:09:02;11.18;;;2.08;;
18685;SDS011;9473;52.342;13.110;2023-02-01T03:11:30;13.70;;;2.38;;
18685;SDS011;9473;52.342;13.110;2023-02-01T03:14:11;14.10;;;2.00;;
18685;SDS011;9473;52.342;13.110;2023-02-01T03:16:41;13.27;;;1.80;;
18685;SDS011;9473;52.342;13.110;2023-02-01T03:19:14;12.93;;;2.13;;
18685;SDS011;9473;52.342;13.110;2023-02-01T03:21:43;13.25;;;2.35;;
18685;SDS011;9473;52.342;13.110;2023-02-01T03:24:11;11.80;;;2.28;;
18685;SDS011;9473;52.342;13.110;2023-02-01T03:26:40;15.30;;;2.00;;
18685;SDS011;9473;52.342;13.110;2023-02-01T03:29:08;10.45;;;1.67;;
18685;SDS011;9473;52.342;13.110;2023-02-01T03:31:37;16.05;;;2.40;;
18685;SDS011;9473;52.342;13.110;2023-02-01T03:34:04;14.25;;;2.35;;
18685;SDS011;9473;52.342;13.110;2023-02-01T03:36:31;20.42;;;2.47;;
18685;SDS011;9473;52.342;13.110;2023-02-01T03:39:02;10.57;;;2.20;;
18685;SDS011;9473;52.342;13.110;2023-02-01T03:41:33;13.88;;;2.00;;
18685;SDS011;9473;52.342;13.110;2023-02-01T03:44:01;13.57;;;2.40;;
18685;SDS011;9473;52.342;13.110;2023-02-01T03:46:31;15.32;;;1.83;;
18685;SDS011;9473;52.342;13.110;2023-02-01T03:49:00;12.90;;;2.15;;
18685;SDS011;9473;52.342;13.110;2023-02-01T03:51:28;12.43;;;2.15;;
18685;SDS011;9473;52.342;13.110;2023-02-01T03:53:55;15.30;;;2.42;;
18685;SDS011;9473;52.342;13.110;2023-02-01T03:56:25;15.98;;;1.92;;
18685;SDS011;9473;52.342;13.110;2023-02-01T03:58:53;7.22;;;1.33;;
18685;SDS011;9473;52.342;13.110;2023-02-01T04:01:25;14.73;;;2.20;;
18685;SDS011;9473;52.342;13.110;2023-02-01T04:03:52;13.93;;;1.95;;
18685;SDS011;9473;52.342;13.110;2023-02-01T04:06:19;17.63;;;2.53;;
18685;SDS011;9473;52.342;13.110;2023-02-01T04:08:46;14.05;;;2.33;;
18685;SDS011;9473;52.342;13.110;2023-02-01T04:11:13;13.88;;;1.92;;
18685;SDS011;9473;52.342;13.110;2023-02-01T04:13:41;17.25;;;2.38;;
18685;SDS011;9473;52.342;13.110;2023-02-01T04:16:08;13.20;;;2.10;;
18685;SDS011;9473;52.342;13.110;2023-02-01T04:18:35;14.68;;;2.00;;
18685;SDS011;9473;52.342;13.110;2023-02-01T04:21:02;10.82;;;2.08;;
18685;SDS011;9473;52.342;13.110;2023-02-01T04:23:29;14.93;;;2.58;;
18685;SDS011;9473;52.342;13.110;2023-02-01T04:25:58;12.90;;;2.20;;
18685;SDS011;9473;52.342;13.110;2023-02-01T04:28:26;14.75;;;1.83;;
18685;SDS011;9473;52.342;13.110;2023-02-01T04:30:54;17.40;;;2.35;;
18685;SDS011;9473;52.342;13.110;2023-02-01T04:33:21;19.05;;;2.35;;
18685;SDS011;9473;52.342;13.110;2023-02-01T04:35:48;12.77;;;2.10;;
18685;SDS011;9473;52.342;13.110;2023-02-01T04:38:15;18.88;;;2.63;;
18685;SDS011;9473;52.342;13.110;2023-02-01T04:40:42;11.35;;;2.03;;
18685;SDS011;9473;52.342;13.110;2023-02-01T04:43:09;11.52;;;2.15;;
18685;SDS011;9473;52.342;13.110;2023-02-01T04:45:36;18.80;;;2.60;;
18685;SDS011;9473;52.342;13.110;2023-02-01T04:48:04;13.02;;;2.08;;
18685;SDS011;9473;52.342;13.110;2023-02-01T04:50:31;17.50;;;2.60;;
18685;SDS011;9473;52.342;13.110;2023-02-01T04:52:58;13.05;;;2.40;;
18685;SDS011;9473;52.342;13.110;2023-02-01T04:55:25;16.63;;;2.00;;
18685;SDS011;9473;52.342;13.110;2023-02-01T04:57:52;16.42;;;1.77;;
18685;SDS011;9473;52.342;13.110;2023-02-01T05:00:20;14.15;;;2.28;;
18685;SDS011;9473;52.342;13.110;2023-02-01T05:02:47;20.30;;;3.17;;
18685;SDS011;9473;52.342;13.110;2023-02-01T05:05:16;13.98;;;2.08;;
18685;SDS011;9473;52.342;13.110;2023-02-01T05:07:42;12.90;;;2.20;;
18685;SDS011;9473;52.342;13.110;2023-02-01T05:10:10;8.45;;;2.13;;
18685;SDS011;9473;52.342;13.110;2023-02-01T05:12:37;15.70;;;2.15;;
18685;SDS011;9473;52.342;13.110;2023-02-01T05:15:21;17.13;;;3.35;;
18685;SDS011;9473;52.342;13.110;2023-02-01T05:17:48;17.25;;;2.38;;
18685;SDS011;9473;52.342;13.110;2023-02-01T05:20:16;18.10;;;2.20;;
18685;SDS011;9473;52.342;13.110;2023-02-01T05:22:43;13.15;;;2.00;;
18685;SDS011;9473;52.342;13.110;2023-02-01T05:25:10;12.35;;;2.45;;
18685;SDS011;9473;52.342;13.110;2023-02-01T05:27:37;12.60;;;2.00;;
18685;SDS011;9473;52.342;13.110;2023-02-01T05:30:05;16.58;;;2.83;;
18685;SDS011;9473;52.342;13.110;2023-02-01T05:32:32;10.90;;;2.00;;
18685;SDS011;9473;52.342;13.110;2023-02-01T05:34:59;12.25;;;1.75;;
18685;SDS011;9473;52.342;13.110;2023-02-01T05:37:27;13.05;;;2.00;;
18685;SDS011;9473;52.342;13.110;2023-02-01T05:39:54;19.60;;;2.63;;
18685;SDS011;9473;52.342;13.110;2023-02-01T05:42:21;14.75;;;2.45;;
18685;SDS011;9473;52.342;13.110;2023-02-01T05:44:48;16.88;;;2.65;;
18685;SDS011;9473;52.342;13.110;2023-02-01T05:47:14;9.57;;;2.30;;
18685;SDS011;9473;52.342;13.110;2023-02-01T05:49:41;13.77;;;2.35;;
18685;SDS011;9473;52.342;13.110;2023-02-01T05:52:08;17.45;;;2.72;;
18685;SDS011;9473;52.342;13.110;2023-02-01T05:54:36;15.90;;;2.38;;
18685;SDS011;9473;52.342;13.110;2023-02-01T05:57:03;11.80;;;2.50;;
18685;SDS011;9473;52.342;13.110;2023-02-01T05:59:30;13.07;;;2.28;;
18685;SDS011;9473;52.342;13.110;2023-02-01T06:01:57;15.45;;;2.15;;
18685;SDS011;9473;52.342;13.110;2023-02-01T06:04:24;15.55;;;2.47;;
18685;SDS011;9473;52.342;13.110;2023-02-01T06:06:51;17.25;;;2.92;;
18685;SDS011;9473;52.342;13.110;2023-02-01T06:09:18;11.05;;;2.15;;
18685;SDS011;9473;52.342;13.110;2023-02-01T06:11:47;21.42;;;2.90;;
18685;SDS011;9473;52.342;13.110;2023-02-01T06:14:13;18.65;;;2.53;;
18685;SDS011;9473;52.342;13.110;2023-02-01T06:16:40;24.77;;;2.67;;
18685;SDS011;9473;52.342;13.110;2023-02-01T06:19:07;12.40;;;2.50;;
18685;SDS011;9473;52.342;13.110;2023-02-01T06:21:34;17.75;;;2.13;;
18685;SDS011;9473;52.342;13.110;2023-02-01T06:24:01;17.45;;;2.67;;
18685;SDS011;9473;52.342;13.110;2023-02-01T06:26:29;12.98;;;2.30;;
18685;SDS011;9473;52.342;13.110;2023-02-01T06:28:57;12.32;;;2.45;;
18685;SDS011;9473;52.342;13.110;2023-02-01T06:31:24;11.63;;;2.33;;
18685;SDS011;9473;52.342;13.110;2023-02-01T06:33:51;10.75;;;1.70;;
18685;SDS011;9473;52.342;13.110;2023-02-01T06:36:18;21.83;;;2.72;;
18685;SDS011;9473;52.342;13.110;2023-02-01T06:38:46;11.57;;;1.98;;
18685;SDS011;9473;52.342;13.110;2023-02-01T06:41:13;15.85;;;2.40;;
18685;SDS011;9473;52.342;13.110;2023-02-01T06:43:39;11.48;;;2.17;;
18685;SDS011;9473;52.342;13.110;2023-02-01T06:46:09;12.57;;;2.00;;
18685;SDS011;9473;52.342;13.110;2023-02-01T06:48:37;16.92;;;2.17;;
18685;SDS011;9473;52.342;13.110;2023-02-01T06:51:04;8.18;;;2.00;;
18685;SDS011;9473;52.342;13.110;2023-02-01T06:53:31;12.88;;;2.47;;
18685;SDS011;9473;52.342;13.110;2023-02-01T06:55:59;13.48;;;2.42;;
18685;SDS011;9473;52.342;13.110;2023-02-01T06:58:28;15.38;;;2.35;;
18685;SDS011;9473;52.342;13.110;2023-02-01T07:00:55;16.90;;;2.33;;
18685;SDS011;9473;52.342;13.110;2023-02-01T07:03:23;8.88;;;2.05;;
18685;SDS011;9473;52.342;13.110;2023-02-01T07:05:53;16.83;;;1.88;;
18685;SDS011;9473;52.342;13.110;2023-02-01T07:08:21;11.80;;;2.22;;
18685;SDS011;9473;52.342;13.110;2023-02-01T07:10:48;10.80;;;2.30;;
18685;SDS011;9473;52.342;13.110;2023-02-01T07:13:15;13.07;;;2.60;;
18685;SDS011;9473;52.342;13.110;2023-02-01T07:15:42;11.23;;;2.33;;
18685;SDS011;9473;52.342;13.110;2023-02-01T07:18:09;17.65;;;2.35;;
18685;SDS011;9473;52.342;13.110;2023-02-01T07:20:37;17.02;;;2.40;;
18685;SDS011;9473;52.342;13.110;2023-02-01T07:23:04;15.77;;;2.45;;
18685;SDS011;9473;52.342;13.110;2023-02-01T07:25:31;13.85;;;2.72;;
18685;SDS011;9473;52.342;13.110;2023-02-01T07:27:58;18.98;;;2.80;;
18685;SDS011;9473;52.342;13.110;2023-02-01T07:30:25;14.73;;;2.30;;
18685;SDS011;9473;52.342;13.110;2023-02-01T07:32:52;16.38;;;2.70;;
18685;SDS011;9473;52.342;13.110;2023-02-01T07:35:18;14.73;;;2.92;;
18685;SDS011;9473;52.342;13.110;2023-02-01T07:37:47;7.90;;;2.30;;
18685;SDS011;9473;52.342;13.110;2023-02-01T07:40:14;15.90;;;2.65;;
18685;SDS011;9473;52.342;13.110;2023-02-01T07:42:40;12.05;;;2.47;;
18685;SDS011;9473;52.342;13.110;2023-02-01T07:45:08;15.85;;;2.42;;
18685;SDS011;9473;52.342;13.110;2023-02-01T07:47:35;32.20;;;10.20;;
18685;SDS011;9473;52.342;13.110;2023-02-01T07:50:02;9.68;;;2.63;;
18685;SDS011;9473;52.342;13.110;2023-02-01T07:52:28;12.35;;;4.05;;
18685;SDS011;9473;52.342;13.110;2023-02-01T07:54:57;15.65;;;3.60;;
18685;SDS011;9473;52.342;13.110;2023-02-01T07:57:24;15.07;;;3.75;;
18685;SDS011;9473;52.342;13.110;2023-02-01T07:59:50;14.25;;;4.95;;
18685;SDS011;9473;52.342;13.110;2023-02-01T08:02:44;17.25;;;5.90;;
18685;SDS011;9473;52.342;13.110;2023-02-01T08:05:11;14.77;;;4.10;;
18685;SDS011;9473;52.342;13.110;2023-02-01T08:07:37;12.13;;;2.78;;
18685;SDS011;9473;52.342;13.110;2023-02-01T08:10:07;10.60;;;3.22;;
18685;SDS011;9473;52.342;13.110;2023-02-01T08:12:36;12.60;;;4.35;;
18685;SDS011;9473;52.342;13.110;2023-02-01T08:15:03;10.02;;;2.58;;
18685;SDS011;9473;52.342;13.110;2023-02-01T08:17:30;8.80;;;2.38;;
18685;SDS011;9473;52.342;13.110;2023-02-01T08:19:57;9.52;;;2.80;;
18685;SDS011;9473;52.342;13.110;2023-02-01T08:22:24;10.77;;;3.20;;
18685;SDS011;9473;52.342;13.110;2023-02-01T08:24:51;14.82;;;2.72;;
18685;SDS011;9473;52.342;13.110;2023-02-01T08:27:27;9.88;;;2.40;;
18685;SDS011;9473;52.342;13.110;2023-02-01T08:29:54;7.97;;;2.55;;
18685;SDS011;9473;52.342;13.110;2023-02-01T08:32:21;4.25;;;1.88;;
18685;SDS011;9473;52.342;13.110;2023-02-01T08:34:48;9.82;;;2.53;;
18685;SDS011;9473;52.342;13.110;2023-02-01T08:37:15;5.53;;;2.00;;
18685;SDS011;9473;52.342;13.110;2023-02-01T08:39:42;8.10;;;2.45;;
18685;SDS011;9473;52.342;13.110;2023-02-01T08:42:09;8.73;;;4.00;;
18685;SDS011;9473;52.342;13.110;2023-02-01T08:44:56;6.50;;;2.08;;
18685;SDS011;9473;52.342;13.110;2023-02-01T08:47:23;6.20;;;1.83;;
18685;SDS011;9473;52.342;13.110;2023-02-01T08:49:50;5.35;;;1.70;;
18685;SDS011;9473;52.342;13.110;2023-02-01T08:52:18;5.82;;;1.80;;
18685;SDS011;9473;52.342;13.110;2023-02-01T08:54:45;7.70;;;1.98;;
18685;SDS011;9473;52.342;13.110;2023-02-01T08:57:12;5.47;;;1.75;;
18685;SDS011;9473;52.342;13.110;2023-02-01T08:59:39;6.57;;;2.10;;
18685;SDS011;9473;52.342;13.110;2023-02-01T09:02:08;5.93;;;1.83;;
18685;SDS011;9473;52.342;13.110;2023-02-01T09:04:35;7.00;;;1.85;;
18685;SDS011;9473;52.342;13.110;2023-02-01T09:07:02;10.25;;;2.10;;
18685;SDS011;9473;52.342;13.110;2023-02-01T09:09:29;5.47;;;1.88;;
18685;SDS011;9473;52.342;13.110;2023-02-01T09:11:55;5.07;;;1.90;;
18685;SDS011;9473;52.342;13.110;2023-02-01T09:14:22;4.15;;;1.90;;
18685;SDS011;9473;52.342;13.110;2023-02-01T09:16:49;5.32;;;1.80;;
18685;SDS011;9473;52.342;13.110;2023-02-01T09:19:18;5.03;;;1.40;;
18685;SDS011;9473;52.342;13.110;2023-02-01T09:21:45;8.55;;;1.60;;
18685;SDS011;9473;52.342;13.110;2023-02-01T09:24:12;3.25;;;1.42;;
18685;SDS011;9473;52.342;13.110;2023-02-01T09:26:39;4.18;;;1.52;;
18685;SDS011;9473;52.342;13.110;2023-02-01T09:29:06;4.57;;;1.50;;
18685;SDS011;9473;52.342;13.110;2023-02-01T09:31:35;4.93;;;1.70;;
18685;SDS011;9473;52.342;13.110;2023-02-01T09:34:02;6.95;;;1.30;;
18685;SDS011;9473;52.342;13.110;2023-02-01T09:36:31;4.22;;;1.58;;
18685;SDS011;9473;52.342;13.110;2023-02-01T09:38:58;2.50;;;1.02;;
18685;SDS011;9473;52.342;13.110;2023-02-01T09:41:28;4.38;;;1.10;;
18685;SDS011;9473;52.342;13.110;2023-02-01T09:43:58;5.15;;;1.48;;
18685;SDS011;9473;52.342;13.110;2023-02-01T09:46:28;4.63;;;1.27;;
18685;SDS011;9473;52.342;13.110;2023-02-01T09:48:56;2.22;;;0.93;;
18685;SDS011;9473;52.342;13.110;2023-02-01T09:51:23;5.88;;;0.82;;
18685;SDS011;9473;52.342;13.110;2023-02-01T09:53:56;2.88;;;0.85;;
18685;SDS011;9473;52.342;13.110;2023-02-01T09:56:26;2.75;;;0.80;;
18685;SDS011;9473;52.342;13.110;2023-02-01T09:58:57;2.70;;;0.80;;
18685;SDS011;9473;52.342;13.110;2023-02-01T10:01:26;2.22;;;0.95;;
18685;SDS011;9473;52.342;13.110;2023-02-01T10:03:56;1.55;;;0.88;;
18685;SDS011;9473;52.342;13.110;2023-02-01T10:06:27;6.53;;;1.30;;
18685;SDS011;9473;52.342;13.110;2023-02-01T10:09:07;3.35;;;1.13;;
18685;SDS011;9473;52.342;13.110;2023-02-01T10:11:39;2.47;;;1.23;;
18685;SDS011;9473;52.342;13.110;2023-02-01T10:14:18;5.18;;;1.05;;
18685;SDS011;9473;52.342;13.110;2023-02-01T10:16:47;2.28;;;0.90;;
18685;SDS011;9473;52.342;13.110;2023-02-01T10:19:22;2.35;;;0.70;;
18685;SDS011;9473;52.342;13.110;2023-02-01T10:21:53;2.83;;;0.90;;
18685;SDS011;9473;52.342;13.110;2023-02-01T10:27:14;3.47;;;0.82;;
18685;SDS011;9473;52.342;13.110;2023-02-01T10:29:44;3.55;;;0.80;;
18685;SDS011;9473;52.342;13.110;2023-02-01T10:32:14;5.85;;;0.95;;
18685;SDS011;9473;52.342;13.110;2023-02-01T10:34:42;2.80;;;0.77;;
18685;SDS011;9473;52.342;13.110;2023-02-01T10:37:13;2.90;;;1.00;;
18685;SDS011;9473;52.342;13.110;2023-02-01T10:39:44;3.97;;;0.90;;
18685;SDS011;9473;52.342;13.110;2023-02-01T10:42:13;7.68;;;1.17;;
18685;SDS011;9473;52.342;13.110;2023-02-01T10:44:42;3.85;;;1.02;;
18685;SDS011;9473;52.342;13.110;2023-02-01T10:47:10;3.38;;;0.80;;
18685;SDS011;9473;52.342;13.110;2023-02-01T10:49:38;3.88;;;0.98;;
18685;SDS011;9473;52.342;13.110;2023-02-01T10:52:06;4.20;;;1.30;;
18685;SDS011;9473;52.342;13.110;2023-02-01T10:54:35;6.40;;;1.10;;
18685;SDS011;9473;52.342;13.110;2023-02-01T10:57:03;5.22;;;1.25;;
18685;SDS011;9473;52.342;13.110;2023-02-01T10:59:35;2.50;;;1.30;;
18685;SDS011;9473;52.342;13.110;2023-02-01T11:02:05;6.97;;;1.17;;
18685;SDS011;9473;52.342;13.110;2023-02-01T11:04:40;4.05;;;1.27;;
18685;SDS011;9473;52.342;13.110;2023-02-01T11:07:13;4.15;;;1.00;;
18685;SDS011;9473;52.342;13.110;2023-02-01T11:09:42;8.35;;;1.20;;
18685;SDS011;9473;52.342;13.110;2023-02-01T11:12:22;6.53;;;1.20;;
18685;SDS011;9473;52.342;13.110;2023-02-01T11:14:55;6.05;;;1.60;;
18685;SDS011;9473;52.342;13.110;2023-02-01T11:17:26;7.15;;;1.30;;
18685;SDS011;9473;52.342;13.110;2023-02-01T11:19:58;10.68;;;1.20;;
18685;SDS011;9473;52.342;13.110;2023-02-01T11:22:26;6.20;;;1.50;;
18685;SDS011;9473;52.342;13.110;2023-02-01T11:24:54;3.97;;;1.00;;
18685;SDS011;9473;52.342;13.110;2023-02-01T11:27:22;5.95;;;1.30;;
18685;SDS011;9473;52.342;13.110;2023-02-01T11:29:50;5.45;;;1.20;;
18685;SDS011;9473;52.342;13.110;2023-02-01T11:32:20;7.00;;;1.42;;
18685;SDS011;9473;52.342;13.110;2023-02-01T11:34:48;6.55;;;1.35;;
18685;SDS011;9473;52.342;13.110;2023-02-01T11:37:17;3.45;;;1.15;;
18685;SDS011;9473;52.342;13.110;2023-02-01T11:39:53;13.07;;;1.25;;
18685;SDS011;9473;52.342;13.110;2023-02-01T11:42:20;7.15;;;1.65;;
18685;SDS011;9473;52.342;13.110;2023-02-01T11:44:47;3.42;;;1.20;;
18685;SDS011;9473;52.342;13.110;2023-02-01T11:47:23;5.90;;;1.60;;
18685;SDS011;9473;52.342;13.110;2023-02-01T11:49:51;7.53;;;1.67;;
18685;SDS011;9473;52.342;13.110;2023-02-01T11:52:21;6.00;;;1.63;;
18685;SDS011;9473;52.342;13.110;2023-02-01T11:54:58;5.95;;;1.27;;
18685;SDS011;9473;52.342;13.110;2023-02-01T11:57:35;6.45;;;1.60;;
18685;SDS011;9473;52.342;13.110;2023-02-01T12:00:13;5.68;;;1.25;;
18685;SDS011;9473;52.342;13.110;2023-02-01T12:05:30;8.60;;;1.48;;
18685;SDS011;9473;52.342;13.110;2023-02-01T12:08:08;7.63;;;1.27;;
18685;SDS011;9473;52.342;13.110;2023-02-01T12:10:41;6.85;;;1.30;;
18685;SDS011;9473;52.342;13.110;2023-02-01T12:13:14;8.10;;;1.83;;
18685;SDS011;9473;52.342;13.110;2023-02-01T12:15:46;6.22;;;1.40;;
18685;SDS011;9473;52.342;13.110;2023-02-01T12:18:29;10.75;;;1.40;;
18685;SDS011;9473;52.342;13.110;2023-02-01T12:21:06;8.10;;;1.20;;
18685;SDS011;9473;52.342;13.110;2023-02-01T12:23:41;4.78;;;1.33;;
18685;SDS011;9473;52.342;13.110;2023-02-01T12:26:18;6.18;;;1.35;;
18685;SDS011;9473;52.342;13.110;2023-02-01T12:28:56;10.30;;;1.73;;
18685;SDS011;9473;52.342;13.110;2023-02-01T12:31:29;4.95;;;1.17;;
18685;SDS011;9473;52.342;13.110;2023-02-01T12:34:07;4.32;;;0.95;;
18685;SDS011;9473;52.342;13.110;2023-02-01T12:36:41;6.82;;;1.10;;
18685;SDS011;9473;52.342;13.110;2023-02-01T12:39:12;4.72;;;1.45;;
18685;SDS011;9473;52.342;13.110;2023-02-01T12:41:45;11.60;;;1.30;;
18685;SDS011;9473;52.342;13.110;2023-02-01T12:44:17;7.15;;;1.42;;
18685;SDS011;9473;52.342;13.110;2023-02-01T12:46:46;6.05;;;1.25;;
18685;SDS011;9473;52.342;13.110;2023-02-01T12:49:16;4.57;;;1.05;;
18685;SDS011;9473;52.342;13.110;2023-02-01T12:51:46;4.00;;;1.00;;
18685;SDS011;9473;52.342;13.110;2023-02-01T12:54:15;7.45;;;1.10;;
18685;SDS011;9473;52.342;13.110;2023-02-01T12:56:46;5.22;;;1.20;;
18685;SDS011;9473;52.342;13.110;2023-02-01T12:59:16;2.95;;;1.05;;
18685;SDS011;9473;52.342;13.110;2023-02-01T13:01:46;6.35;;;1.20;;
18685;SDS011;9473;52.342;13.110;2023-02-01T13:04:18;12.52;;;1.70;;
18685;SDS011;9473;52.342;13.110;2023-02-01T13:06:49;5.03;;;1.23;;
18685;SDS011;9473;52.342;13.110;2023-02-01T13:09:20;7.97;;;1.35;;
18685;SDS011;9473;52.342;13.110;2023-02-01T13:11:49;8.85;;;1.50;;
18685;SDS011;9473;52.342;13.110;2023-02-01T13:14:19;4.95;;;1.85;;
18685;SDS011;9473;52.342;13.110;2023-02-01T13:16:49;4.90;;;1.40;;
18685;SDS011;9473;52.342;13.110;2023-02-01T13:19:18;9.13;;;1.92;;
18685;SDS011;9473;52.342;13.110;2023-02-01T13:21:50;9.15;;;2.03;;
18685;SDS011;9473;52.342;13.110;2023-02-01T13:24:23;6.47;;;1.35;;
18685;SDS011;9473;52.342;13.110;2023-02-01T13:26:53;7.32;;;1.70;;
18685;SDS011;9473;52.342;13.110;2023-02-01T13:29:20;7.00;;;1.40;;
18685;SDS011;9473;52.342;13.110;2023-02-01T13:31:52;5.35;;;1.50;;
18685;SDS011;9473;52.342;13.110;2023-02-01T13:34:43;8.07;;;1.58;;
18685;SDS011;9473;52.342;13.110;2023-02-01T13:37:33;9.55;;;1.40;;
18685;SDS011;9473;52.342;13.110;2023-02-01T13:40:09;6.85;;;1.58;;
18685;SDS011;9473;52.342;13.110;2023-02-01T13:42:42;7.57;;;1.70;;
18685;SDS011;9473;52.342;13.110;2023-02-01T13:45:13;8.45;;;1.60;;
18685;SDS011;9473;52.342;13.110;2023-02-01T13:47:42;8.68;;;1.63;;
18685;SDS011;9473;52.342;13.110;2023-02-01T13:50:12;7.63;;;1.60;;
18685;SDS011;9473;52.342;13.110;2023-02-01T13:52:42;6.45;;;1.67;;
18685;SDS011;9473;52.342;13.110;2023-02-01T13:55:14;8.43;;;1.60;;
18685;SDS011;9473;52.342;13.110;2023-02-01T13:57:42;6.60;;;1.48;;
18685;SDS011;9473;52.342;13.110;2023-02-01T14:00:22;8.18;;;1.70;;
18685;SDS011;9473;52.342;13.110;2023-02-01T14:03:01;9.85;;;1.70;;
18685;SDS011;9473;52.342;13.110;2023-02-01T14:08:20;8.27;;;1.60;;
18685;SDS011;9473;52.342;13.110;2023-02-01T14:10:48;7.53;;;1.70;;
18685;SDS011;9473;52.342;13.110;2023-02-01T14:13:22;12.18;;;1.70;;
18685;SDS011;9473;52.342;13.110;2023-02-01T14:16:10;12.43;;;1.40;;
18685;SDS011;9473;52.342;13.110;2023-02-01T14:18:48;9.43;;;1.55;;
18685;SDS011;9473;52.342;13.110;2023-02-01T14:21:18;5.75;;;1.48;;
18685;SDS011;9473;52.342;13.110;2023-02-01T14:23:47;9.15;;;1.52;;
18685;SDS011;9473;52.342;13.110;2023-02-01T14:26:22;8.00;;;1.85;;
18685;SDS011;9473;52.342;13.110;2023-02-01T14:29:00;4.32;;;1.60;;
18685;SDS011;9473;52.342;13.110;2023-02-01T14:31:35;9.52;;;2.22;;
18685;SDS011;9473;52.342;13.110;2023-02-01T14:34:08;11.25;;;1.85;;
18685;SDS011;9473;52.342;13.110;2023-02-01T14:36:42;5.63;;;1.80;;
18685;SDS011;9473;52.342;13.110;2023-02-01T14:39:22;4.10;;;1.40;;
18685;SDS011;9473;52.342;13.110;2023-02-01T14:41:51;12.05;;;1.95;;
18685;SDS011;9473;52.342;13.110;2023-02-01T14:44:24;13.70;;;1.70;;
18685;SDS011;9473;52.342;13.110;2023-02-01T14:49:47;9.18;;;1.80;;
18685;SDS011;9473;52.342;13.110;2023-02-01T14:52:16;8.90;;;1.60;;
18685;SDS011;9473;52.342;13.110;2023-02-01T14:54:46;5.45;;;1.30;;
18685;SDS011;9473;52.342;13.110;2023-02-01T14:57:15;5.05;;;1.10;;
18685;SDS011;9473;52.342;13.110;2023-02-01T14:59:43;7.45;;;1.10;;
18685;SDS011;9473;52.342;13.110;2023-02-01T15:02:16;7.50;;;1.02;;
18685;SDS011;9473;52.342;13.110;2023-02-01T15:04:44;5.60;;;1.30;;
18685;SDS011;9473;52.342;13.110;2023-02-01T15:07:12;5.75;;;1.17;;
18685;SDS011;9473;52.342;13.110;2023-02-01T15:09:42;3.22;;;0.90;;
18685;SDS011;9473;52.342;13.110;2023-02-01T15:12:16;6.57;;;0.90;;
18685;SDS011;9473;52.342;13.110;2023-02-01T15:14:46;4.07;;;1.13;;